Impacts TAF Board INFO
FOR SITUATIONAL AWARENESS. NOT TO BE USED FOR FLIGHT PLANNING PURPOSES.
IDs:

KBOS - Boston/Logan Intl, MA, US

Issued at 1733 UTC 18 Feb 2018
Updated at 1810 UTC 18 Feb 2018
Potential Impact None Slight Moderate High
Time1754Z 18/19Z 18/20Z 18/21Z 18/22Z 18/23Z 19/00Z 19/01Z 19/02Z 19/03Z 19/04Z 19/05Z 19/06Z 19/07Z>>
Type OBS PRVL PRVL PRVL PRVL PRVL PRVL PRVL PRVL PRVL PRVL PRVL PRVL PRVL
VIS 10 >6 >6 >6 >6 >6 >6 >6 >6 >6 >6 >6 >6 >6
CIG -- -- -- -- -- -- -- -- -- -- -- -- -- --
Cover SCT SKC SKC SKC SKC SKC FEW FEW FEW FEW FEW FEW FEW FEW
FltCat VFR VFR VFR VFR VFR VFR VFR VFR VFR VFR VFR VFR VFR VFR
WX -- -- -- -- -- -- -- -- -- -- -- -- -- --
WDir 300 320 320 320 320 320 280 280 280 280 280 230 230 230
WSpd 13 10 10 10 10 10 5 5 5 5 5 3 3 3
WGst -- 20 20 20 20 20 -- -- -- -- -- -- -- --

Raw TAF
KBOS 181733Z 1818/1924 32010G20KT P6SM SKC
  FM190000 28005KT P6SM FEW250
  FM190500 23003KT P6SM FEW150
  FM191400 19008G18KT P6SM FEW200
  FM191900 20011G23KT P6SM VCSH BKN030


Raw METAR
KBOS 181754Z 30013KT 10SM SCT035 04/M03 A3020 RMK AO2 SLP227 60000 T00441033 10044 20000 51023
KBOS 181654Z 32011G20KT 10SM FEW030 04/M04 A3018 RMK AO2 SLP218 T00391039
KBOS 181554Z 32019G25KT 10SM FEW030 03/M03 A3020 RMK AO2 SLP226 T00331028

METAR Board
Radar Display
Forecast Discussion

FOR SITUATIONAL AWARENESS. NOT TO BE USED FOR FLIGHT PLANNING PURPOSES.